Fred, Texas
Current Conditions -  °F | °C
As of 11:35 AM on Friday 19 Dec 2014 (Local Time) from KJAS Reporting Station
Moderate Rain Moderate Rain  
Wind Chill: 51°   Ceiling: 700
Heat Index: 51°   Visibility: 10mi
Dew Point: 49°   Wind: 9mph
Humidity: 95%   Direction: 360°N
Pressure: 30.14"   Gusts: 16mph
Location:  30.58°N, 94.18°W
Report Text: KJAS 191735Z AUTO 36008G14KT 10SM RA OVC007 11/10 A3014 RMK AO2 P0002 T01050097
Loading
Personal Weather Stations






























Interactive Weather Map New forecast layout! Learn more

10-Day Weather Forecast

Advertisements
Track Severe Weather on mobile